sensor_id;sensor_type;location;lat;lon;timestamp;temperature;humidity
44707;DHT22;30433;45.596;8.408;2023-04-01T00:03:21;6.60;99.90
44707;DHT22;30433;45.596;8.408;2023-04-01T00:09:25;6.50;99.90
44707;DHT22;30433;45.596;8.408;2023-04-01T00:15:26;7.00;99.90
44707;DHT22;30433;45.596;8.408;2023-04-01T00:21:28;7.00;99.90
44707;DHT22;30433;45.596;8.408;2023-04-01T00:27:32;7.10;99.90
44707;DHT22;30433;45.596;8.408;2023-04-01T00:33:34;7.50;99.90
44707;DHT22;30433;45.596;8.408;2023-04-01T00:39:36;7.30;99.90
44707;DHT22;30433;45.596;8.408;2023-04-01T00:45:40;7.50;99.90
44707;DHT22;30433;45.596;8.408;2023-04-01T00:51:42;7.20;99.90
44707;DHT22;30433;45.596;8.408;2023-04-01T00:57:46;7.00;99.90
44707;DHT22;30433;45.596;8.408;2023-04-01T01:03:51;6.90;99.90
44707;DHT22;30433;45.596;8.408;2023-04-01T01:09:55;7.10;99.90
44707;DHT22;30433;45.596;8.408;2023-04-01T01:15:58;7.00;99.90
44707;DHT22;30433;45.596;8.408;2023-04-01T01:22:07;6.70;99.90
44707;DHT22;30433;45.596;8.408;2023-04-01T01:28:15;6.40;99.90
44707;DHT22;30433;45.596;8.408;2023-04-01T01:34:26;6.60;99.90
44707;DHT22;30433;45.596;8.408;2023-04-01T01:40:31;6.90;99.90
44707;DHT22;30433;45.596;8.408;2023-04-01T01:46:34;6.50;99.90
44707;DHT22;30433;45.596;8.408;2023-04-01T01:52:39;6.60;99.90
44707;DHT22;30433;45.596;8.408;2023-04-01T01:58:42;6.70;99.90
44707;DHT22;30433;45.596;8.408;2023-04-01T02:04:44;6.80;99.90
44707;DHT22;30433;45.596;8.408;2023-04-01T02:10:49;6.80;99.90
44707;DHT22;30433;45.596;8.408;2023-04-01T02:16:57;6.50;99.90
44707;DHT22;30433;45.596;8.408;2023-04-01T02:22:59;6.70;99.90
44707;DHT22;30433;45.596;8.408;2023-04-01T02:29:01;6.70;99.90
44707;DHT22;30433;45.596;8.408;2023-04-01T02:35:07;6.60;99.90
44707;DHT22;30433;45.596;8.408;2023-04-01T02:41:11;6.50;99.90
44707;DHT22;30433;45.596;8.408;2023-04-01T02:47:13;5.90;99.90
44707;DHT22;30433;45.596;8.408;2023-04-01T02:53:16;5.60;99.90
44707;DHT22;30433;45.596;8.408;2023-04-01T02:59:18;6.50;99.90
44707;DHT22;30433;45.596;8.408;2023-04-01T03:05:20;6.50;99.90
44707;DHT22;30433;45.596;8.408;2023-04-01T03:11:23;6.20;99.90
44707;DHT22;30433;45.596;8.408;2023-04-01T03:17:26;6.40;99.90
44707;DHT22;30433;45.596;8.408;2023-04-01T03:23:28;6.50;99.90
44707;DHT22;30433;45.596;8.408;2023-04-01T03:29:31;6.50;99.90
44707;DHT22;30433;45.596;8.408;2023-04-01T03:35:33;6.70;99.90
44707;DHT22;30433;45.596;8.408;2023-04-01T03:41:36;6.30;99.90
44707;DHT22;30433;45.596;8.408;2023-04-01T03:47:40;6.40;99.90
44707;DHT22;30433;45.596;8.408;2023-04-01T03:53:41;6.20;99.90
44707;DHT22;30433;45.596;8.408;2023-04-01T03:59:43;6.40;99.90
44707;DHT22;30433;45.596;8.408;2023-04-01T04:05:47;6.20;99.90
44707;DHT22;30433;45.596;8.408;2023-04-01T04:11:49;6.20;99.90
44707;DHT22;30433;45.596;8.408;2023-04-01T04:17:51;5.90;99.90
44707;DHT22;30433;45.596;8.408;2023-04-01T04:23:54;5.60;99.90
44707;DHT22;30433;45.596;8.408;2023-04-01T04:29:56;5.30;99.90
44707;DHT22;30433;45.596;8.408;2023-04-01T04:35:58;5.80;99.90
44707;DHT22;30433;45.596;8.408;2023-04-01T04:42:01;5.50;99.90
44707;DHT22;30433;45.596;8.408;2023-04-01T04:48:03;5.40;99.90
44707;DHT22;30433;45.596;8.408;2023-04-01T04:54:06;5.80;99.90
44707;DHT22;30433;45.596;8.408;2023-04-01T05:00:10;5.60;99.90
44707;DHT22;30433;45.596;8.408;2023-04-01T05:06:13;5.70;99.90
44707;DHT22;30433;45.596;8.408;2023-04-01T05:12:15;5.30;99.90
44707;DHT22;30433;45.596;8.408;2023-04-01T05:18:18;4.90;99.90
44707;DHT22;30433;45.596;8.408;2023-04-01T05:24:20;5.40;99.90
44707;DHT22;30433;45.596;8.408;2023-04-01T05:30:22;5.30;99.90
44707;DHT22;30433;45.596;8.408;2023-04-01T05:36:25;5.70;99.90
44707;DHT22;30433;45.596;8.408;2023-04-01T05:42:28;6.00;99.90
44707;DHT22;30433;45.596;8.408;2023-04-01T05:48:32;7.00;99.90
44707;DHT22;30433;45.596;8.408;2023-04-01T05:54:36;7.40;99.90
44707;DHT22;30433;45.596;8.408;2023-04-01T06:00:38;7.60;99.90
44707;DHT22;30433;45.596;8.408;2023-04-01T06:06:40;8.10;99.90
44707;DHT22;30433;45.596;8.408;2023-04-01T06:12:53;8.10;99.90
44707;DHT22;30433;45.596;8.408;2023-04-01T06:19:09;8.40;99.90
44707;DHT22;30433;45.596;8.408;2023-04-01T06:38:18;9.70;99.90
44707;DHT22;30433;45.596;8.408;2023-04-01T06:44:23;9.90;98.90
44707;DHT22;30433;45.596;8.408;2023-04-01T06:50:28;10.40;99.10
44707;DHT22;30433;45.596;8.408;2023-04-01T06:56:32;10.50;97.10
44707;DHT22;30433;45.596;8.408;2023-04-01T07:02:36;10.50;96.80
44707;DHT22;30433;45.596;8.408;2023-04-01T07:08:40;11.20;97.50
44707;DHT22;30433;45.596;8.408;2023-04-01T07:14:45;10.90;96.60
44707;DHT22;30433;45.596;8.408;2023-04-01T07:20:49;11.50;97.10
44707;DHT22;30433;45.596;8.408;2023-04-01T07:26:54;11.70;96.20
44707;DHT22;30433;45.596;8.408;2023-04-01T07:32:58;11.40;96.00
44707;DHT22;30433;45.596;8.408;2023-04-01T07:39:05;11.60;96.60
44707;DHT22;30433;45.596;8.408;2023-04-01T07:45:12;12.30;96.60
44707;DHT22;30433;45.596;8.408;2023-04-01T07:51:19;12.10;95.70
44707;DHT22;30433;45.596;8.408;2023-04-01T07:57:25;12.20;95.70
44707;DHT22;30433;45.596;8.408;2023-04-01T08:03:33;12.90;91.90
44707;DHT22;30433;45.596;8.408;2023-04-01T08:09:41;13.40;92.80
44707;DHT22;30433;45.596;8.408;2023-04-01T08:15:46;13.30;91.60
44707;DHT22;30433;45.596;8.408;2023-04-01T08:21:49;13.60;92.10
44707;DHT22;30433;45.596;8.408;2023-04-01T08:27:54;13.60;91.00
44707;DHT22;30433;45.596;8.408;2023-04-01T08:33:58;13.70;91.40
44707;DHT22;30433;45.596;8.408;2023-04-01T08:40:02;13.40;92.40
44707;DHT22;30433;45.596;8.408;2023-04-01T08:52:36;13.60;92.30
44707;DHT22;30433;45.596;8.408;2023-04-01T08:58:48;13.90;91.70
44707;DHT22;30433;45.596;8.408;2023-04-01T09:11:18;14.50;91.00
44707;DHT22;30433;45.596;8.408;2023-04-01T09:17:29;14.60;90.40
44707;DHT22;30433;45.596;8.408;2023-04-01T09:23:44;15.00;93.80
44707;DHT22;30433;45.596;8.408;2023-04-01T09:29:58;14.70;92.50
44707;DHT22;30433;45.596;8.408;2023-04-01T09:36:07;15.30;92.80
44707;DHT22;30433;45.596;8.408;2023-04-01T09:48:45;15.30;89.50
44707;DHT22;30433;45.596;8.408;2023-04-01T09:54:54;15.80;90.00
44707;DHT22;30433;45.596;8.408;2023-04-01T10:20:04;16.70;80.20
44707;DHT22;30433;45.596;8.408;2023-04-01T10:32:39;16.90;78.60
44707;DHT22;30433;45.596;8.408;2023-04-01T10:51:27;17.10;73.00
44707;DHT22;30433;45.596;8.408;2023-04-01T11:10:26;17.50;70.40
44707;DHT22;30433;45.596;8.408;2023-04-01T11:16:54;17.20;65.20
44707;DHT22;30433;45.596;8.408;2023-04-01T11:23:09;17.10;68.50
44707;DHT22;30433;45.596;8.408;2023-04-01T11:29:27;17.30;68.90
44707;DHT22;30433;45.596;8.408;2023-04-01T11:35:38;17.80;73.00
44707;DHT22;30433;45.596;8.408;2023-04-01T11:41:42;18.50;75.20
44707;DHT22;30433;45.596;8.408;2023-04-01T11:47:51;18.10;71.20
44707;DHT22;30433;45.596;8.408;2023-04-01T11:53:57;18.40;67.70
44707;DHT22;30433;45.596;8.408;2023-04-01T12:00:05;17.40;63.60
44707;DHT22;30433;45.596;8.408;2023-04-01T12:06:18;17.20;62.50
44707;DHT22;30433;45.596;8.408;2023-04-01T12:12:24;17.10;64.70
44707;DHT22;30433;45.596;8.408;2023-04-01T12:18:31;17.20;65.90
44707;DHT22;30433;45.596;8.408;2023-04-01T12:24:46;17.20;64.80
44707;DHT22;30433;45.596;8.408;2023-04-01T12:30:50;17.10;64.00
44707;DHT22;30433;45.596;8.408;2023-04-01T12:36:59;17.00;63.90
44707;DHT22;30433;45.596;8.408;2023-04-01T12:43:10;17.00;64.00
44707;DHT22;30433;45.596;8.408;2023-04-01T12:49:19;17.10;66.60
44707;DHT22;30433;45.596;8.408;2023-04-01T12:55:33;17.00;67.40
44707;DHT22;30433;45.596;8.408;2023-04-01T13:07:59;17.40;63.40
44707;DHT22;30433;45.596;8.408;2023-04-01T13:14:13;17.40;65.00
44707;DHT22;30433;45.596;8.408;2023-04-01T13:20:20;17.90;68.80
44707;DHT22;30433;45.596;8.408;2023-04-01T13:26:27;17.80;64.80
44707;DHT22;30433;45.596;8.408;2023-04-01T13:32:33;18.00;66.10
44707;DHT22;30433;45.596;8.408;2023-04-01T13:38:53;18.10;62.40
44707;DHT22;30433;45.596;8.408;2023-04-01T13:45:01;17.90;61.70
44707;DHT22;30433;45.596;8.408;2023-04-01T13:51:07;17.90;60.90
44707;DHT22;30433;45.596;8.408;2023-04-01T13:57:17;18.40;63.90
44707;DHT22;30433;45.596;8.408;2023-04-01T14:03:28;18.20;62.60
44707;DHT22;30433;45.596;8.408;2023-04-01T14:09:45;18.30;61.20
44707;DHT22;30433;45.596;8.408;2023-04-01T14:15:52;18.50;61.60
44707;DHT22;30433;45.596;8.408;2023-04-01T14:22:03;18.60;59.20
44707;DHT22;30433;45.596;8.408;2023-04-01T14:28:09;18.80;62.40
44707;DHT22;30433;45.596;8.408;2023-04-01T14:34:20;18.70;60.80
44707;DHT22;30433;45.596;8.408;2023-04-01T14:40:28;18.40;58.00
44707;DHT22;30433;45.596;8.408;2023-04-01T14:46:43;18.20;61.00
44707;DHT22;30433;45.596;8.408;2023-04-01T14:52:52;18.10;59.80
44707;DHT22;30433;45.596;8.408;2023-04-01T14:58:58;18.10;60.80
44707;DHT22;30433;45.596;8.408;2023-04-01T15:05:04;17.90;61.70
44707;DHT22;30433;45.596;8.408;2023-04-01T15:11:14;18.10;59.30
44707;DHT22;30433;45.596;8.408;2023-04-01T15:17:28;18.40;59.60
44707;DHT22;30433;45.596;8.408;2023-04-01T15:23:34;18.40;58.20
44707;DHT22;30433;45.596;8.408;2023-04-01T15:29:41;18.60;58.50
44707;DHT22;30433;45.596;8.408;2023-04-01T15:35:48;18.50;59.40
44707;DHT22;30433;45.596;8.408;2023-04-01T15:41:58;18.40;59.20
44707;DHT22;30433;45.596;8.408;2023-04-01T15:48:06;18.50;57.00
44707;DHT22;30433;45.596;8.408;2023-04-01T15:54:23;18.60;56.90
44707;DHT22;30433;45.596;8.408;2023-04-01T16:00:26;18.50;56.40
44707;DHT22;30433;45.596;8.408;2023-04-01T16:06:36;18.50;57.20
44707;DHT22;30433;45.596;8.408;2023-04-01T16:12:47;18.40;55.50
44707;DHT22;30433;45.596;8.408;2023-04-01T16:18:54;18.30;58.60
44707;DHT22;30433;45.596;8.408;2023-04-01T16:25:01;18.20;57.40
44707;DHT22;30433;45.596;8.408;2023-04-01T16:31:05;18.20;54.40
44707;DHT22;30433;45.596;8.408;2023-04-01T16:37:10;18.30;54.20
44707;DHT22;30433;45.596;8.408;2023-04-01T16:43:16;18.00;56.60
44707;DHT22;30433;45.596;8.408;2023-04-01T16:49:30;17.80;57.20
44707;DHT22;30433;45.596;8.408;2023-04-01T16:55:34;17.70;57.70
44707;DHT22;30433;45.596;8.408;2023-04-01T17:01:38;17.50;57.20
44707;DHT22;30433;45.596;8.408;2023-04-01T17:07:46;17.30;57.70
44707;DHT22;30433;45.596;8.408;2023-04-01T17:13:50;17.10;58.10
44707;DHT22;30433;45.596;8.408;2023-04-01T17:20:10;17.40;56.10
44707;DHT22;30433;45.596;8.408;2023-04-01T17:26:20;16.90;58.40
44707;DHT22;30433;45.596;8.408;2023-04-01T17:32:28;16.80;58.20
44707;DHT22;30433;45.596;8.408;2023-04-01T17:38:43;16.60;59.50
44707;DHT22;30433;45.596;8.408;2023-04-01T17:44:51;16.20;63.40
44707;DHT22;30433;45.596;8.408;2023-04-01T17:50:59;15.90;64.90
44707;DHT22;30433;45.596;8.408;2023-04-01T17:57:09;15.70;63.50
44707;DHT22;30433;45.596;8.408;2023-04-01T18:03:24;15.60;64.00
44707;DHT22;30433;45.596;8.408;2023-04-01T18:09:33;15.30;66.10
44707;DHT22;30433;45.596;8.408;2023-04-01T18:15:39;15.20;65.10
44707;DHT22;30433;45.596;8.408;2023-04-01T18:21:45;15.00;69.00
44707;DHT22;30433;45.596;8.408;2023-04-01T18:27:49;14.50;71.40
44707;DHT22;30433;45.596;8.408;2023-04-01T18:33:54;14.20;72.70
44707;DHT22;30433;45.596;8.408;2023-04-01T18:40:02;14.20;67.10
44707;DHT22;30433;45.596;8.408;2023-04-01T18:46:07;14.30;65.90
44707;DHT22;30433;45.596;8.408;2023-04-01T18:52:15;13.70;69.90
44707;DHT22;30433;45.596;8.408;2023-04-01T18:58:22;13.90;66.40
44707;DHT22;30433;45.596;8.408;2023-04-01T19:04:27;13.80;66.00
44707;DHT22;30433;45.596;8.408;2023-04-01T19:10:35;13.90;65.30
44707;DHT22;30433;45.596;8.408;2023-04-01T19:16:43;14.10;65.10
44707;DHT22;30433;45.596;8.408;2023-04-01T19:22:54;14.10;66.90
44707;DHT22;30433;45.596;8.408;2023-04-01T19:28:59;13.70;68.70
44707;DHT22;30433;45.596;8.408;2023-04-01T19:35:10;13.70;66.80
44707;DHT22;30433;45.596;8.408;2023-04-01T19:41:17;13.50;68.30
44707;DHT22;30433;45.596;8.408;2023-04-01T19:47:24;13.50;66.40
44707;DHT22;30433;45.596;8.408;2023-04-01T19:53:29;13.20;67.80
44707;DHT22;30433;45.596;8.408;2023-04-01T19:59:34;12.90;67.90
44707;DHT22;30433;45.596;8.408;2023-04-01T20:05:39;13.10;66.30
44707;DHT22;30433;45.596;8.408;2023-04-01T20:11:49;12.90;66.40
44707;DHT22;30433;45.596;8.408;2023-04-01T20:17:56;12.90;67.40
44707;DHT22;30433;45.596;8.408;2023-04-01T20:24:00;13.00;65.50
44707;DHT22;30433;45.596;8.408;2023-04-01T20:30:21;12.90;64.00
44707;DHT22;30433;45.596;8.408;2023-04-01T20:36:30;12.90;63.30
44707;DHT22;30433;45.596;8.408;2023-04-01T20:42:34;12.80;63.90
44707;DHT22;30433;45.596;8.408;2023-04-01T20:55:16;12.40;65.70
44707;DHT22;30433;45.596;8.408;2023-04-01T21:01:23;12.40;68.10
44707;DHT22;30433;45.596;8.408;2023-04-01T21:07:27;12.10;65.70
44707;DHT22;30433;45.596;8.408;2023-04-01T21:13:40;12.20;64.80
44707;DHT22;30433;45.596;8.408;2023-04-01T21:19:51;12.20;66.40
44707;DHT22;30433;45.596;8.408;2023-04-01T21:26:01;12.20;68.60
44707;DHT22;30433;45.596;8.408;2023-04-01T21:32:10;11.90;68.20
44707;DHT22;30433;45.596;8.408;2023-04-01T21:38:28;11.40;68.90
44707;DHT22;30433;45.596;8.408;2023-04-01T21:44:38;9.80;71.70
44707;DHT22;30433;45.596;8.408;2023-04-01T21:50:48;10.60;68.80
44707;DHT22;30433;45.596;8.408;2023-04-01T21:57:05;11.10;69.10
44707;DHT22;30433;45.596;8.408;2023-04-01T22:03:27;10.50;70.40
44707;DHT22;30433;45.596;8.408;2023-04-01T22:09:35;10.30;70.40
44707;DHT22;30433;45.596;8.408;2023-04-01T22:15:53;10.50;72.70
44707;DHT22;30433;45.596;8.408;2023-04-01T22:22:02;10.50;74.00
44707;DHT22;30433;45.596;8.408;2023-04-01T22:28:09;10.10;74.60
44707;DHT22;30433;45.596;8.408;2023-04-01T22:34:13;10.60;74.30
44707;DHT22;30433;45.596;8.408;2023-04-01T22:40:21;10.20;74.00
44707;DHT22;30433;45.596;8.408;2023-04-01T22:46:32;9.30;77.60
44707;DHT22;30433;45.596;8.408;2023-04-01T22:52:38;9.50;76.80
44707;DHT22;30433;45.596;8.408;2023-04-01T22:58:42;10.00;74.00
44707;DHT22;30433;45.596;8.408;2023-04-01T23:04:47;8.90;76.10
44707;DHT22;30433;45.596;8.408;2023-04-01T23:10:50;8.90;78.50
44707;DHT22;30433;45.596;8.408;2023-04-01T23:16:57;8.80;78.10
44707;DHT22;30433;45.596;8.408;2023-04-01T23:23:22;8.70;77.90
44707;DHT22;30433;45.596;8.408;2023-04-01T23:29:25;8.70;77.60
44707;DHT22;30433;45.596;8.408;2023-04-01T23:35:28;7.20;82.70
44707;DHT22;30433;45.596;8.408;2023-04-01T23:41:31;6.90;83.40
44707;DHT22;30433;45.596;8.408;2023-04-01T23:47:35;6.50;82.40
44707;DHT22;30433;45.596;8.408;2023-04-01T23:53:41;8.00;79.70
44707;DHT22;30433;45.596;8.408;2023-04-01T23:59:46;7.70;79.70
